Time;durP1;ratioP1;P1;durP2;ratioP2;P2;SDS_P1;SDS_P2;PMS_P1;PMS_P2;Temp;Humidity;BMP_temperature;BMP_pressure;BME280_temperature;BME280_humidity;BME280_pressure;Samples;Min_cycle;Max_cycle;Signal;HPM_P1;HPM_P2
2023/03/16 00:01:39;;;;;;;12.65;6.30;;;1.90;85.60;;;;;;5034597;28;20095;-68
2023/03/16 00:04:13;;;;;;;12.23;6.03;;;1.90;85.60;;;;;;5034411;28;20049;-69
2023/03/16 00:06:46;;;;;;;11.60;6.05;;;1.90;85.40;;;;;;5033587;28;20045;-65
2023/03/16 00:09:19;;;;;;;12.15;6.35;;;1.90;85.50;;;;;;5034666;28;20480;-61
2023/03/16 00:11:53;;;;;;;12.27;6.88;;;1.90;85.50;;;;;;5036167;28;20053;-60
2023/03/16 00:14:27;;;;;;;13.23;6.93;;;1.80;85.40;;;;;;5036327;28;20056;-60
2023/03/16 00:17:00;;;;;;;10.73;5.65;;;1.90;85.30;;;;;;5030320;28;20045;-59
2023/03/16 00:19:34;;;;;;;13.02;6.32;;;1.80;85.10;;;;;;5029148;28;20875;-59
2023/03/16 00:22:07;;;;;;;12.88;6.43;;;1.80;85.00;;;;;;5031312;28;20060;-64
2023/03/16 00:24:43;;;;;;;13.80;6.28;;;1.70;85.10;;;;;;5014289;28;20133;-63
2023/03/16 00:27:18;;;;;;;12.27;6.20;;;1.70;85.00;;;;;;5015022;28;20050;-60
2023/03/16 00:29:55;;;;;;;12.13;6.07;;;1.70;84.80;;;;;;5014213;28;20066;-60
2023/03/16 00:32:31;;;;;;;14.68;7.28;;;1.70;84.90;;;;;;5035143;28;20424;-58
2023/03/16 00:35:05;;;;;;;11.20;5.57;;;1.70;84.80;;;;;;5033642;28;20175;-59
2023/03/16 00:37:45;;;;;;;11.82;6.30;;;1.70;84.90;;;;;;5028404;28;20068;-72
2023/03/16 00:40:24;;;;;;;11.07;5.97;;;1.60;84.90;;;;;;5020513;28;20562;-70
2023/03/16 00:43:00;;;;;;;11.23;5.97;;;1.60;84.90;;;;;;5016175;28;20053;-72
2023/03/16 00:45:33;;;;;;;12.15;6.47;;;1.60;84.80;;;;;;5015428;28;20057;-61
2023/03/16 00:48:06;;;;;;;12.80;6.20;;;1.60;84.80;;;;;;4998131;28;20054;-61
2023/03/16 00:50:33;;;;;;;10.68;5.70;;;1.60;84.60;;;;;;5010242;28;20057;-59
2023/03/16 00:53:06;;;;;;;10.38;6.00;;;1.60;84.50;;;;;;5016444;28;21175;-59
2023/03/16 00:55:40;;;;;;;10.68;5.72;;;1.50;84.40;;;;;;5018651;28;20038;-59
2023/03/16 00:58:15;;;;;;;13.30;6.28;;;1.50;84.40;;;;;;5012899;28;20116;-58
2023/03/16 01:00:50;;;;;;;12.82;6.10;;;1.50;84.40;;;;;;4997612;28;20132;-63
2023/03/16 01:03:23;;;;;;;12.18;6.10;;;1.50;84.40;;;;;;5018843;28;20060;-64
2023/03/16 01:05:58;;;;;;;12.13;6.28;;;1.50;84.50;;;;;;5013762;28;20042;-60
2023/03/16 01:08:32;;;;;;;11.45;6.22;;;1.50;84.30;;;;;;5011483;28;20049;-61
2023/03/16 01:11:10;;;;;;;12.45;6.50;;;1.50;84.30;;;;;;5011869;28;20112;-62
2023/03/16 01:13:53;;;;;;;12.63;6.75;;;1.40;84.30;;;;;;5032613;28;20056;-62
2023/03/16 01:16:27;;;;;;;13.80;5.97;;;1.40;84.50;;;;;;5033911;28;20055;-64
2023/03/16 01:19:00;;;;;;;11.55;5.40;;;1.30;84.60;;;;;;5012608;28;20046;-63
2023/03/16 01:21:35;;;;;;;12.25;6.18;;;1.30;84.50;;;;;;5011568;28;20119;-59
2023/03/16 01:24:10;;;;;;;10.38;5.30;;;1.30;84.70;;;;;;5003911;28;20147;-59
2023/03/16 01:26:43;;;;;;;10.13;5.53;;;1.30;84.70;;;;;;5012170;28;20050;-60
2023/03/16 01:29:18;;;;;;;10.32;5.63;;;1.20;84.70;;;;;;5015744;28;20415;-60
2023/03/16 01:31:54;;;;;;;9.98;5.85;;;1.20;84.90;;;;;;4995456;28;20053;-59
2023/03/16 01:34:28;;;;;;;10.73;6.55;;;1.20;85.00;;;;;;5008657;28;20197;-59
2023/03/16 01:37:01;;;;;;;10.93;6.10;;;1.10;85.10;;;;;;5016740;28;20050;-61
2023/03/16 01:39:51;;;;;;;12.20;5.85;;;1.10;85.30;;;;;;4991232;28;20428;-61
2023/03/16 01:42:24;;;;;;;10.50;5.53;;;1.10;85.20;;;;;;4995656;28;20699;-59
2023/03/16 01:45:04;;;;;;;11.45;5.53;;;1.10;85.10;;;;;;5014459;28;20133;-59
2023/03/16 01:47:39;;;;;;;11.23;5.57;;;1.10;84.90;;;;;;5012475;28;20069;-63
2023/03/16 01:50:16;;;;;;;11.43;5.65;;;1.10;84.70;;;;;;4998149;28;20050;-63
2023/03/16 01:52:51;;;;;;;10.25;5.88;;;1.10;84.40;;;;;;5008735;28;20042;-63
2023/03/16 01:55:24;;;;;;;10.85;5.50;;;1.10;84.40;;;;;;5015954;28;20057;-61
2023/03/16 01:57:57;;;;;;;12.27;6.45;;;1.10;84.30;;;;;;5012841;28;20497;-60
2023/03/16 02:00:32;;;;;;;9.13;5.20;;;1.00;84.20;;;;;;4988122;28;20050;-69
2023/03/16 02:03:16;;;;;;;10.95;6.25;;;0.90;84.40;;;;;;5024271;28;20385;-69
2023/03/16 02:05:59;;;;;;;9.75;5.05;;;1.00;84.20;;;;;;4993675;28;20133;-63
2023/03/16 02:08:36;;;;;;;9.70;5.18;;;1.00;84.00;;;;;;5013787;28;20132;-63
2023/03/16 02:11:10;;;;;;;11.25;5.50;;;1.00;84.00;;;;;;5013922;28;20049;-64
2023/03/16 02:13:51;;;;;;;10.02;5.75;;;0.90;84.10;;;;;;5023243;28;20054;-64
2023/03/16 02:16:26;;;;;;;10.35;5.43;;;1.00;84.10;;;;;;4987513;28;20061;-60
2023/03/16 02:18:59;;;;;;;10.65;5.18;;;1.00;84.10;;;;;;5013724;28;20045;-62
2023/03/16 02:21:40;;;;;;;7.82;4.75;;;1.00;83.80;;;;;;5016293;28;20095;-69
2023/03/16 02:24:13;;;;;;;8.85;4.70;;;1.00;83.70;;;;;;5013444;28;20053;-69
2023/03/16 02:26:52;;;;;;;9.68;5.28;;;0.90;83.70;;;;;;4991138;28;20068;-60
2023/03/16 02:29:53;;;;;;;8.82;5.00;;;0.90;84.00;;;;;;5010516;28;20111;-60
2023/03/16 02:32:30;;;;;;;9.43;4.93;;;0.90;83.60;;;;;;5016089;28;20041;-69
2023/03/16 02:35:04;;;;;;;8.40;4.53;;;0.90;83.30;;;;;;5016273;28;20056;-68
2023/03/16 02:37:37;;;;;;;7.57;4.47;;;0.80;83.30;;;;;;4993939;28;20142;-62
2023/03/16 02:40:27;;;;;;;9.27;4.65;;;0.80;83.40;;;;;;5027827;28;20041;-62
2023/03/16 02:43:13;;;;;;;7.75;4.18;;;0.80;83.40;;;;;;5029003;28;20041;-63
2023/03/16 02:46:02;;;;;;;8.85;4.85;;;0.80;83.30;;;;;;5006567;28;20095;-63
2023/03/16 02:48:41;;;;;;;9.32;4.45;;;0.80;83.40;;;;;;5028752;28;20427;-63
2023/03/16 02:51:14;;;;;;;7.90;4.57;;;0.80;83.40;;;;;;5014408;28;20048;-61
2023/03/16 02:53:48;;;;;;;7.80;4.32;;;0.80;83.40;;;;;;5016409;28;20129;-62
2023/03/16 02:56:22;;;;;;;8.85;4.35;;;0.80;83.50;;;;;;5015319;28;20697;-63
2023/03/16 02:58:56;;;;;;;7.25;4.10;;;0.70;83.60;;;;;;5010207;28;20057;-63
2023/03/16 03:01:33;;;;;;;7.65;4.13;;;0.70;83.70;;;;;;5012566;28;20094;-63
2023/03/16 03:04:07;;;;;;;8.90;4.32;;;0.70;83.70;;;;;;5013418;28;20558;-63
2023/03/16 03:06:41;;;;;;;7.93;4.10;;;0.60;83.90;;;;;;5034268;28;20098;-63
2023/03/16 03:09:14;;;;;;;7.63;3.80;;;0.70;83.60;;;;;;5029938;28;20047;-63
2023/03/16 03:11:52;;;;;;;7.30;4.10;;;0.70;83.60;;;;;;5013653;28;20049;-63
2023/03/16 03:14:27;;;;;;;8.73;4.32;;;0.70;83.50;;;;;;5020782;28;20051;-63
2023/03/16 03:17:03;;;;;;;7.63;4.07;;;0.70;83.50;;;;;;5021945;28;20080;-71
2023/03/16 03:19:37;;;;;;;10.38;4.38;;;0.70;83.50;;;;;;5021152;28;20053;-71
2023/03/16 03:22:11;;;;;;;7.40;3.85;;;0.70;83.60;;;;;;5013922;28;20048;-59
2023/03/16 03:24:45;;;;;;;10.65;4.57;;;0.70;83.50;;;;;;5015641;28;20052;-59
2023/03/16 03:27:18;;;;;;;8.00;3.97;;;0.70;83.50;;;;;;5014228;28;20064;-68
2023/03/16 03:29:53;;;;;;;7.50;4.40;;;0.60;83.70;;;;;;5006389;28;20608;-68
2023/03/16 03:32:30;;;;;;;8.18;4.05;;;0.70;83.50;;;;;;5014332;28;20120;-61
2023/03/16 03:35:04;;;;;;;7.80;4.30;;;0.60;83.40;;;;;;5010718;28;20053;-63
2023/03/16 03:37:44;;;;;;;8.52;4.60;;;0.60;83.60;;;;;;5029637;28;20053;-61
2023/03/16 03:40:25;;;;;;;8.93;4.10;;;0.60;83.50;;;;;;5027956;28;20045;-60
2023/03/16 03:43:02;;;;;;;8.82;4.22;;;0.50;83.50;;;;;;5009276;28;20064;-63
2023/03/16 03:45:40;;;;;;;9.07;4.30;;;0.60;83.50;;;;;;5032634;28;20468;-67
2023/03/16 03:48:15;;;;;;;9.27;4.13;;;0.50;83.60;;;;;;5014502;28;20128;-69
2023/03/16 03:50:48;;;;;;;8.45;4.03;;;0.50;83.60;;;;;;5011895;28;20485;-60
2023/03/16 03:53:40;;;;;;;6.68;3.72;;;0.50;83.70;;;;;;5031654;28;20503;-59
2023/03/16 03:56:27;;;;;;;7.53;4.10;;;0.50;83.70;;;;;;5013740;28;20053;-58
2023/03/16 03:59:00;;;;;;;8.73;4.03;;;0.50;83.60;;;;;;5007841;28;20049;-59
2023/03/16 04:02:09;;;;;;;9.75;4.25;;;0.50;83.70;;;;;;4970289;28;20586;-59
2023/03/16 04:04:50;;;;;;;6.65;3.28;;;0.40;83.60;;;;;;5006985;28;20502;-61
2023/03/16 04:07:23;;;;;;;9.48;3.63;;;0.50;83.50;;;;;;5028868;28;20563;-60
2023/03/16 04:10:01;;;;;;;9.10;4.55;;;0.50;83.30;;;;;;5014689;28;20096;-60
2023/03/16 04:12:38;;;;;;;6.82;3.47;;;0.40;83.40;;;;;;5004886;28;20049;-63
2023/03/16 04:15:13;;;;;;;7.40;3.90;;;0.40;83.50;;;;;;5014902;28;20077;-63
2023/03/16 04:17:57;;;;;;;7.60;3.97;;;0.40;83.30;;;;;;5007522;28;20164;-63
2023/03/16 04:20:32;;;;;;;8.57;3.72;;;0.50;83.10;;;;;;5021220;28;20049;-61
2023/03/16 04:23:06;;;;;;;7.75;4.00;;;0.50;83.20;;;;;;5004710;28;20488;-61
2023/03/16 04:25:41;;;;;;;6.78;3.20;;;0.50;83.20;;;;;;5030693;28;20041;-63
2023/03/16 04:28:17;;;;;;;6.40;3.38;;;0.60;83.40;;;;;;5032974;28;20480;-62
2023/03/16 04:30:53;;;;;;;6.65;2.95;;;0.50;83.50;;;;;;5013966;28;20488;-60
2023/03/16 04:33:32;;;;;;;6.65;3.08;;;0.60;83.70;;;;;;5032354;28;20056;-60
2023/03/16 04:36:07;;;;;;;8.05;3.10;;;0.60;83.70;;;;;;5028774;28;20123;-59
2023/03/16 04:38:43;;;;;;;6.00;3.17;;;0.60;83.80;;;;;;5012504;28;20067;-59
2023/03/16 04:41:17;;;;;;;6.32;2.60;;;0.60;83.90;;;;;;5014669;28;20385;-63
2023/03/16 04:43:58;;;;;;;9.13;3.45;;;0.60;84.00;;;;;;5010546;28;20049;-63
2023/03/16 04:46:32;;;;;;;6.97;3.28;;;0.60;84.30;;;;;;5016605;28;20213;-63
2023/03/16 04:49:09;;;;;;;7.40;3.22;;;0.60;84.50;;;;;;5019217;28;20381;-62
2023/03/16 04:51:46;;;;;;;6.47;3.42;;;0.60;84.30;;;;;;5004269;28;20060;-63
2023/03/16 04:54:21;;;;;;;6.63;3.40;;;0.60;84.20;;;;;;5011506;28;20057;-63
2023/03/16 04:56:54;;;;;;;8.25;3.65;;;0.60;84.00;;;;;;5023819;28;20049;-61
2023/03/16 04:59:48;;;;;;;8.80;4.00;;;0.60;83.90;;;;;;5011311;28;20053;-61
2023/03/16 05:02:26;;;;;;;10.38;3.72;;;0.50;83.90;;;;;;5010547;28;20038;-63
2023/03/16 05:05:01;;;;;;;8.95;3.65;;;0.50;83.70;;;;;;5018101;28;20156;-61
2023/03/16 05:07:38;;;;;;;6.40;3.30;;;0.40;83.80;;;;;;5018231;28;20063;-71
2023/03/16 05:10:14;;;;;;;8.02;3.58;;;0.40;83.60;;;;;;5016693;28;20134;-71
2023/03/16 05:12:51;;;;;;;8.18;3.85;;;0.50;83.60;;;;;;5011383;28;20048;-61
2023/03/16 05:15:24;;;;;;;8.10;3.85;;;0.40;83.40;;;;;;5031529;28;20694;-71
2023/03/16 05:18:02;;;;;;;7.22;3.20;;;0.40;83.50;;;;;;5014724;28;20045;-71
2023/03/16 05:20:35;;;;;;;7.03;3.63;;;0.40;83.60;;;;;;5016642;28;20051;-63
2023/03/16 05:23:10;;;;;;;7.68;3.38;;;0.40;83.70;;;;;;5022781;28;20053;-63
2023/03/16 05:25:51;;;;;;;6.72;3.50;;;0.40;83.80;;;;;;5005872;28;20045;-60
2023/03/16 05:28:27;;;;;;;7.05;3.40;;;0.40;83.70;;;;;;5009110;28;20045;-60
2023/03/16 05:31:04;;;;;;;8.07;3.70;;;0.40;83.60;;;;;;5006320;28;20041;-62
2023/03/16 05:33:49;;;;;;;7.03;3.38;;;0.30;83.40;;;;;;5009644;28;20046;-63
2023/03/16 05:36:23;;;;;;;5.82;2.97;;;0.30;83.30;;;;;;5007643;28;20045;-69
2023/03/16 05:39:12;;;;;;;8.02;3.15;;;0.20;83.20;;;;;;5015117;28;20069;-69
2023/03/16 05:41:48;;;;;;;9.07;3.92;;;0.20;83.30;;;;;;5007199;28;20407;-60
2023/03/16 05:44:26;;;;;;;7.13;3.33;;;0.20;83.50;;;;;;5006221;28;20444;-60
2023/03/16 05:47:20;;;;;;;6.50;3.05;;;0.20;83.50;;;;;;5030564;28;20061;-69
2023/03/16 05:49:56;;;;;;;7.00;3.55;;;0.20;83.60;;;;;;5025879;28;20404;-68
2023/03/16 05:52:35;;;;;;;7.63;3.47;;;0.20;83.80;;;;;;5032741;28;20041;-60
2023/03/16 05:55:18;;;;;;;9.35;3.75;;;0.30;83.80;;;;;;5010671;28;20650;-60
2023/03/16 05:57:56;;;;;;;6.10;3.30;;;0.30;83.80;;;;;;5012332;28;20041;-60
2023/03/16 06:00:38;;;;;;;7.53;3.30;;;0.30;83.80;;;;;;5031292;28;20076;-61
2023/03/16 06:03:22;;;;;;;6.88;3.40;;;0.30;83.90;;;;;;5011071;28;20094;-60
2023/03/16 06:05:58;;;;;;;6.32;2.90;;;0.30;83.80;;;;;;5030418;28;20041;-60
2023/03/16 06:08:37;;;;;;;6.28;2.95;;;0.30;84.00;;;;;;5015995;28;20427;-60
2023/03/16 06:11:13;;;;;;;5.47;2.92;;;0.30;83.90;;;;;;5031755;28;20073;-60
2023/03/16 06:13:47;;;;;;;7.57;3.38;;;0.30;84.30;;;;;;5027165;28;20072;-60
2023/03/16 06:16:20;;;;;;;7.57;3.22;;;0.30;84.20;;;;;;5031362;28;20045;-60
2023/03/16 06:18:55;;;;;;;7.20;3.47;;;0.30;84.30;;;;;;5032298;28;20448;-60
2023/03/16 06:21:30;;;;;;;6.18;3.33;;;0.30;84.20;;;;;;5014882;28;20179;-61
2023/03/16 06:24:08;;;;;;;7.40;3.78;;;0.30;84.40;;;;;;5029965;28;20129;-61
2023/03/16 06:26:43;;;;;;;9.50;4.53;;;0.40;84.40;;;;;;5014625;28;20049;-61
2023/03/16 06:29:17;;;;;;;8.60;3.97;;;0.50;84.40;;;;;;4979951;28;20050;-61
2023/03/16 06:31:53;;;;;;;9.63;4.20;;;0.50;84.50;;;;;;5011774;28;20862;-68
2023/03/16 06:34:26;;;;;;;8.68;3.65;;;0.50;84.60;;;;;;5005723;28;20050;-69
2023/03/16 06:36:59;;;;;;;9.55;4.60;;;0.60;84.80;;;;;;5013379;28;20393;-60
2023/03/16 06:39:39;;;;;;;8.43;4.30;;;0.60;84.80;;;;;;5015232;28;20057;-61
2023/03/16 06:42:14;;;;;;;11.43;4.38;;;0.70;84.80;;;;;;5029347;28;20048;-63
2023/03/16 06:44:47;;;;;;;8.25;4.13;;;0.70;84.80;;;;;;5030745;28;20049;-63
2023/03/16 06:47:21;;;;;;;7.78;3.58;;;0.70;84.60;;;;;;5013753;28;20212;-60
2023/03/16 06:49:55;;;;;;;7.72;4.00;;;0.60;84.60;;;;;;5007873;28;20353;-60
2023/03/16 06:52:28;;;;;;;8.70;3.80;;;0.70;84.30;;;;;;5012504;28;20489;-71
2023/03/16 06:55:01;;;;;;;9.20;3.97;;;0.70;84.30;;;;;;5030719;28;20511;-71
2023/03/16 06:57:39;;;;;;;8.75;4.43;;;0.70;84.40;;;;;;5014424;28;20041;-71
2023/03/16 07:00:15;;;;;;;9.93;4.43;;;0.70;84.20;;;;;;5026553;28;20053;-71
2023/03/16 07:02:48;;;;;;;8.75;4.20;;;0.80;84.10;;;;;;5023475;28;20052;-69
2023/03/16 07:05:21;;;;;;;7.68;4.05;;;0.80;84.70;;;;;;5015184;28;20053;-71
2023/03/16 07:07:56;;;;;;;8.00;4.25;;;0.80;84.70;;;;;;4991309;28;20050;-71
2023/03/16 07:10:31;;;;;;;9.75;4.22;;;0.80;84.70;;;;;;5017860;28;20050;-63
2023/03/16 07:13:06;;;;;;;9.32;4.55;;;0.80;84.50;;;;;;5013951;28;20061;-62
2023/03/16 07:15:39;;;;;;;9.05;4.13;;;0.90;85.00;;;;;;5007250;28;20057;-61
2023/03/16 07:18:12;;;;;;;8.07;4.47;;;0.90;85.00;;;;;;5029069;28;20131;-61
2023/03/16 07:20:46;;;;;;;8.82;4.53;;;0.90;84.50;;;;;;5031565;28;20049;-58
2023/03/16 07:23:20;;;;;;;8.73;4.78;;;0.90;84.80;;;;;;5022974;28;20064;-58
2023/03/16 07:26:00;;;;;;;7.53;4.23;;;1.00;85.00;;;;;;5011311;28;20037;-63
2023/03/16 07:28:35;;;;;;;9.60;5.35;;;1.10;85.20;;;;;;5008812;28;20041;-63
2023/03/16 07:31:09;;;;;;;9.27;5.00;;;1.00;85.10;;;;;;5023896;28;20049;-61
2023/03/16 07:33:39;;;;;;;9.18;5.10;;;1.00;84.90;;;;;;5014930;28;20065;-60
2023/03/16 07:36:18;;;;;;;9.93;4.95;;;1.10;85.30;;;;;;5009385;28;20045;-60
2023/03/16 07:38:56;;;;;;;10.10;5.10;;;1.20;85.30;;;;;;5026078;28;20050;-60
2023/03/16 07:41:30;;;;;;;8.73;4.75;;;1.20;85.30;;;;;;5032448;28;20099;-58
2023/03/16 07:44:32;;;;;;;9.70;4.88;;;1.20;85.70;;;;;;5026782;28;20297;-58
2023/03/16 07:47:06;;;;;;;9.25;4.78;;;1.30;85.80;;;;;;5016364;28;20128;-63
2023/03/16 07:49:40;;;;;;;8.50;4.40;;;1.40;85.80;;;;;;5008028;28;20045;-63
2023/03/16 07:52:13;;;;;;;10.60;4.70;;;1.50;85.80;;;;;;5029898;28;20448;-63
2023/03/16 07:54:42;;;;;;;10.30;4.72;;;1.50;85.70;;;;;;5014225;28;20492;-63
2023/03/16 07:57:15;;;;;;;9.07;5.40;;;1.60;85.80;;;;;;5033110;28;20460;-63
2023/03/16 07:59:50;;;;;;;10.23;4.85;;;1.70;85.90;;;;;;5012228;28;20125;-63
2023/03/16 08:02:23;;;;;;;10.52;4.63;;;1.70;85.80;;;;;;5014066;28;20144;-71
2023/03/16 08:04:56;;;;;;;10.82;5.18;;;1.80;86.20;;;;;;5013968;28;20077;-71
2023/03/16 08:07:31;;;;;;;10.10;5.00;;;2.00;86.20;;;;;;5025431;28;20487;-62
2023/03/16 08:10:11;;;;;;;;;;;2.00;86.10;;;;;;5006824;28;20069;-61
2023/03/16 08:13:03;;;;;;;9.88;4.28;;;2.20;86.50;;;;;;5011581;28;19947;-63
2023/03/16 08:15:46;;;;;;;8.10;4.38;;;2.30;86.50;;;;;;5013593;28;20591;-72
2023/03/16 08:18:26;;;;;;;8.82;5.03;;;2.50;86.50;;;;;;5013452;28;20057;-71
2023/03/16 08:20:59;;;;;;;8.25;4.28;;;2.60;86.20;;;;;;5013630;28;20681;-67
2023/03/16 08:23:33;;;;;;;8.60;4.78;;;2.70;86.10;;;;;;5035457;28;20499;-65
2023/03/16 08:26:08;;;;;;;11.45;4.68;;;2.80;85.90;;;;;;5011409;28;20132;-60
2023/03/16 08:28:41;;;;;;;11.65;5.18;;;3.00;86.00;;;;;;5017445;28;20058;-60
2023/03/16 08:31:16;;;;;;;11.05;5.03;;;3.00;85.60;;;;;;5019105;28;20041;-70
2023/03/16 08:34:09;;;;;;;9.82;5.18;;;3.10;85.70;;;;;;5014504;28;20448;-71
2023/03/16 08:36:44;;;;;;;8.77;4.68;;;3.30;85.60;;;;;;4999578;28;20060;-62
2023/03/16 08:39:24;;;;;;;7.80;4.63;;;3.30;85.10;;;;;;5012438;28;20046;-62
2023/03/16 08:41:58;;;;;;;11.75;5.07;;;3.40;85.20;;;;;;5016382;28;20305;-60
2023/03/16 08:44:42;;;;;;;9.90;4.88;;;3.50;85.20;;;;;;5011782;28;20360;-61
2023/03/16 08:47:18;;;;;;;9.25;4.82;;;3.50;84.80;;;;;;5034224;28;20049;-63
2023/03/16 08:49:51;;;;;;;11.18;5.35;;;3.60;85.00;;;;;;5012315;28;20049;-62
2023/03/16 08:52:24;;;;;;;9.75;4.70;;;3.70;84.60;;;;;;5037440;28;20049;-61
2023/03/16 08:54:57;;;;;;;9.50;4.63;;;3.80;84.30;;;;;;5035982;28;20563;-62
2023/03/16 08:57:31;;;;;;;8.80;5.45;;;3.80;84.40;;;;;;5037292;28;20503;-59
2023/03/16 09:00:12;;;;;;;9.68;5.05;;;3.90;84.10;;;;;;5028478;28;20558;-63
2023/03/16 09:02:47;;;;;;;8.52;4.95;;;4.00;84.20;;;;;;5036177;28;20132;-59
2023/03/16 09:05:22;;;;;;;9.63;5.50;;;4.20;83.70;;;;;;5035511;28;20045;-61
2023/03/16 09:07:56;;;;;;;8.23;4.63;;;4.30;83.70;;;;;;5016217;28;20057;-61
2023/03/16 09:10:31;;;;;;;11.43;5.00;;;4.40;83.30;;;;;;5032736;28;20124;-60
2023/03/16 09:13:04;;;;;;;8.77;5.05;;;4.50;83.10;;;;;;5030581;28;20373;-59
2023/03/16 09:15:37;;;;;;;9.65;4.60;;;4.60;83.10;;;;;;5034877;28;20095;-59
2023/03/16 09:18:12;;;;;;;9.38;5.07;;;4.60;83.00;;;;;;5036652;28;20126;-60
2023/03/16 09:20:46;;;;;;;8.63;5.03;;;4.70;82.50;;;;;;5034203;28;20049;-59
2023/03/16 09:23:19;;;;;;;9.13;4.63;;;4.80;82.30;;;;;;5033122;28;20128;-59
2023/03/16 09:25:53;;;;;;;8.77;4.60;;;4.90;82.20;;;;;;5036325;28;20057;-70
2023/03/16 09:28:27;;;;;;;8.68;4.97;;;4.90;81.80;;;;;;5033779;28;20459;-71
2023/03/16 09:31:01;;;;;;;9.77;5.50;;;5.00;81.20;;;;;;5034590;28;20592;-63
2023/03/16 09:33:36;;;;;;;8.60;4.53;;;5.20;81.40;;;;;;5032238;28;20056;-63
2023/03/16 09:36:10;;;;;;;8.10;4.70;;;5.20;81.10;;;;;;5032599;28;20062;-60
2023/03/16 09:38:44;;;;;;;7.63;4.72;;;5.20;80.80;;;;;;5023099;28;20046;-61
2023/03/16 09:41:45;;;;;;;8.40;4.90;;;5.30;80.80;;;;;;5011160;28;20188;-60
2023/03/16 09:44:33;;;;;;;7.63;4.97;;;5.50;80.30;;;;;;5015965;28;20046;-59
2023/03/16 09:47:10;;;;;;;7.32;4.65;;;5.60;80.20;;;;;;5011107;28;20511;-60
2023/03/16 09:49:47;;;;;;;8.63;4.90;;;5.60;80.30;;;;;;5014496;28;20046;-60
2023/03/16 09:52:29;;;;;;;8.80;5.00;;;5.60;80.40;;;;;;5014827;28;20131;-66
2023/03/16 09:55:07;;;;;;;7.82;4.72;;;5.70;79.80;;;;;;5015641;28;20049;-66
2023/03/16 09:57:43;;;;;;;7.82;4.82;;;5.80;79.00;;;;;;5013521;28;20701;-67
2023/03/16 10:00:19;;;;;;;8.77;4.38;;;5.90;78.50;;;;;;5015259;28;20041;-59
2023/03/16 10:03:18;;;;;;;7.72;4.30;;;6.10;78.40;;;;;;5014477;28;20046;-60
2023/03/16 10:05:59;;;;;;;8.48;4.78;;;6.20;78.30;;;;;;5009816;28;20155;-61
2023/03/16 10:08:39;;;;;;;9.15;4.32;;;6.30;78.20;;;;;;4999643;28;20050;-60
2023/03/16 10:11:24;;;;;;;9.18;5.40;;;6.30;78.20;;;;;;5009426;28;20077;-63
2023/03/16 10:14:03;;;;;;;7.55;4.63;;;6.40;78.30;;;;;;5014338;28;20045;-63
2023/03/16 10:16:40;;;;;;;8.20;5.20;;;6.50;78.40;;;;;;5016886;28;20125;-59
2023/03/16 10:19:18;;;;;;;7.15;4.25;;;6.50;77.80;;;;;;5013322;28;20639;-59
2023/03/16 10:21:56;;;;;;;7.78;4.72;;;6.50;77.60;;;;;;5014819;28;20133;-58
2023/03/16 10:24:41;;;;;;;8.10;4.97;;;6.60;77.00;;;;;;5013299;28;20073;-59
2023/03/16 10:27:20;;;;;;;6.53;4.38;;;6.60;76.30;;;;;;5011524;28;20065;-68
2023/03/16 10:29:54;;;;;;;8.25;4.88;;;6.70;76.60;;;;;;5008763;28;20054;-67
2023/03/16 10:32:33;;;;;;;8.18;4.80;;;6.80;76.50;;;;;;5009977;28;20534;-64
2023/03/16 10:35:17;;;;;;;8.25;5.00;;;6.90;76.10;;;;;;5007192;28;20060;-62
2023/03/16 10:37:52;;;;;;;8.02;4.25;;;7.00;76.20;;;;;;5008610;28;20473;-62
2023/03/16 10:40:36;;;;;;;7.93;4.78;;;7.10;75.80;;;;;;4992934;28;20137;-68
2023/03/16 10:43:13;;;;;;;7.88;4.60;;;7.10;75.20;;;;;;5011587;28;20403;-68
2023/03/16 10:45:47;;;;;;;8.35;5.07;;;7.20;75.00;;;;;;4994047;28;20046;-60
2023/03/16 10:48:21;;;;;;;6.80;4.07;;;7.30;75.10;;;;;;4992288;28;20050;-60
2023/03/16 10:50:58;;;;;;;8.65;5.47;;;7.40;75.30;;;;;;4994581;28;20056;-61
2023/03/16 10:53:37;;;;;;;8.60;4.82;;;7.40;75.20;;;;;;4992614;28;20068;-61
2023/03/16 10:56:12;;;;;;;8.45;4.90;;;7.50;74.60;;;;;;4992227;28;20474;-70
2023/03/16 10:58:46;;;;;;;8.13;4.82;;;7.50;74.90;;;;;;4993370;28;20104;-70
2023/03/16 11:01:21;;;;;;;8.38;5.38;;;7.60;74.40;;;;;;4994177;28;20484;-70
2023/03/16 11:03:56;;;;;;;8.95;4.07;;;7.70;74.20;;;;;;4991638;28;20058;-70
2023/03/16 11:06:31;;;;;;;8.20;4.82;;;7.70;74.10;;;;;;4989754;28;20489;-70
2023/03/16 11:09:13;;;;;;;7.40;4.47;;;7.60;74.10;;;;;;4992554;28;20054;-70
2023/03/16 11:11:48;;;;;;;8.85;5.18;;;7.70;73.60;;;;;;5010507;28;20050;-70
2023/03/16 11:14:26;;;;;;;9.70;4.90;;;7.70;73.70;;;;;;4989508;28;20118;-71
2023/03/16 11:17:08;;;;;;;10.05;5.22;;;7.70;73.50;;;;;;4991468;28;20092;-70
2023/03/16 11:19:50;;;;;;;11.05;6.82;;;7.70;73.70;;;;;;5012970;28;20407;-71
2023/03/16 11:22:25;;;;;;;10.02;5.68;;;7.80;73.50;;;;;;4992724;28;20053;-70
2023/03/16 11:25:21;;;;;;;10.15;5.63;;;7.70;73.30;;;;;;4993212;28;20086;-69
2023/03/16 11:28:13;;;;;;;9.57;5.60;;;7.70;73.30;;;;;;4993677;28;20065;-70
2023/03/16 11:30:54;;;;;;;9.48;5.35;;;7.60;73.00;;;;;;4992187;28;20457;-67
2023/03/16 11:33:29;;;;;;;12.18;5.75;;;7.70;73.50;;;;;;4993019;28;20098;-67
2023/03/16 11:36:17;;;;;;;7.90;5.25;;;7.70;73.30;;;;;;4994451;28;20039;-61
2023/03/16 11:39:03;;;;;;;11.88;5.75;;;7.80;73.10;;;;;;4998269;28;20061;-62
2023/03/16 11:41:47;;;;;;;9.80;5.80;;;7.80;73.40;;;;;;5012123;28;20049;-61
2023/03/16 11:44:36;;;;;;;10.40;5.82;;;7.90;73.50;;;;;;5006083;28;20080;-61
2023/03/16 11:47:29;;;;;;;8.68;5.65;;;8.00;73.50;;;;;;5029088;28;20128;-61
2023/03/16 11:50:14;;;;;;;9.25;5.32;;;8.00;72.70;;;;;;5008950;28;20056;-61
2023/03/16 11:52:57;;;;;;;9.35;5.13;;;8.00;72.80;;;;;;5010698;28;20587;-61
2023/03/16 11:55:41;;;;;;;9.05;5.00;;;7.90;72.90;;;;;;5008105;28;20038;-64
2023/03/16 11:58:28;;;;;;;8.07;4.90;;;7.90;72.90;;;;;;5004136;28;20148;-65
2023/03/16 12:01:08;;;;;;;8.07;4.78;;;7.90;72.70;;;;;;5009185;28;20527;-67
2023/03/16 12:04:03;;;;;;;7.72;4.35;;;8.00;72.70;;;;;;5010590;28;20049;-69
2023/03/16 12:06:53;;;;;;;9.25;4.43;;;7.90;72.70;;;;;;5007759;28;20130;-71
2023/03/16 12:10:01;;;;;;;9.52;4.43;;;8.00;72.90;;;;;;5004011;28;20050;-71
2023/03/16 12:12:47;;;;;;;9.18;4.90;;;8.00;73.20;;;;;;5025512;28;20033;-70
2023/03/16 12:15:34;;;;;;;7.47;4.18;;;8.00;73.10;;;;;;5025201;28;20444;-61
2023/03/16 12:18:15;;;;;;;7.57;4.13;;;8.00;73.20;;;;;;5007950;28;20132;-60
2023/03/16 12:20:54;;;;;;;8.05;4.65;;;8.00;73.30;;;;;;5009329;28;20052;-68
2023/03/16 12:23:31;;;;;;;8.00;4.40;;;7.90;73.20;;;;;;5029381;28;20088;-69
2023/03/16 12:26:05;;;;;;;7.68;4.13;;;7.90;73.00;;;;;;5026203;28;20052;-59
2023/03/16 12:28:42;;;;;;;8.20;4.15;;;7.80;73.20;;;;;;5026105;28;20464;-59
2023/03/16 12:31:19;;;;;;;8.40;4.43;;;7.90;73.40;;;;;;5009244;28;20100;-62
2023/03/16 12:34:13;;;;;;;6.82;3.85;;;7.90;73.20;;;;;;5009936;28;20429;-64
2023/03/16 12:37:11;;;;;;;7.57;4.30;;;8.00;73.10;;;;;;5029068;28;20095;-64
2023/03/16 12:40:08;;;;;;;6.00;3.80;;;8.10;73.00;;;;;;5010044;28;20038;-63
2023/03/16 12:43:21;;;;;;;7.55;4.10;;;8.10;73.00;;;;;;5011135;28;20054;-63
2023/03/16 12:46:04;;;;;;;6.97;4.13;;;8.30;72.90;;;;;;4926148;29;20052;-63
2023/03/16 12:48:43;;;;;;;7.40;4.18;;;8.40;72.90;;;;;;4927823;29;20051;-63
2023/03/16 12:51:17;;;;;;;8.27;4.45;;;8.40;73.20;;;;;;5002564;28;20057;-61
2023/03/16 12:53:56;;;;;;;7.15;3.97;;;8.50;72.30;;;;;;5028888;28;20110;-61
2023/03/16 12:56:31;;;;;;;7.25;4.03;;;8.50;72.90;;;;;;5009650;28;20396;-59
2023/03/16 12:59:08;;;;;;;7.05;4.18;;;8.60;72.30;;;;;;5012287;28;20136;-58
2023/03/16 13:01:43;;;;;;;6.90;3.67;;;8.70;72.10;;;;;;5012041;28;20546;-70
2023/03/16 13:04:21;;;;;;;8.27;4.43;;;8.70;72.10;;;;;;5008179;28;20088;-70
2023/03/16 13:07:03;;;;;;;6.97;3.95;;;8.80;71.60;;;;;;5005788;28;20057;-61
2023/03/16 13:09:42;;;;;;;6.75;4.13;;;8.80;71.60;;;;;;5013685;28;20049;-60
2023/03/16 13:12:24;;;;;;;7.13;4.20;;;8.90;71.10;;;;;;5010738;28;20057;-64
2023/03/16 13:14:58;;;;;;;7.10;4.20;;;9.00;71.30;;;;;;5008883;28;20108;-63
2023/03/16 13:17:33;;;;;;;7.35;4.18;;;9.10;71.40;;;;;;5015906;28;20125;-63
2023/03/16 13:20:30;;;;;;;6.57;4.07;;;9.10;71.00;;;;;;5012013;28;20132;-64
2023/03/16 13:23:22;;;;;;;7.13;3.95;;;9.00;70.60;;;;;;5013823;28;20075;-65
2023/03/16 13:26:05;;;;;;;8.82;3.92;;;9.00;70.60;;;;;;5014135;28;20135;-62
2023/03/16 13:28:39;;;;;;;7.22;4.25;;;9.00;70.50;;;;;;5013963;28;20408;-63
2023/03/16 13:31:25;;;;;;;6.45;3.72;;;9.00;70.90;;;;;;5015957;28;20042;-60
2023/03/16 13:34:01;;;;;;;7.72;4.10;;;9.00;70.20;;;;;;5012702;28;20076;-60
2023/03/16 13:36:36;;;;;;;6.15;3.40;;;9.00;70.20;;;;;;5012687;28;20046;-59
2023/03/16 13:39:15;;;;;;;7.18;3.55;;;9.00;69.70;;;;;;5011952;28;20046;-59
2023/03/16 13:41:58;;;;;;;7.80;3.70;;;9.00;70.00;;;;;;5017253;28;20065;-69
2023/03/16 13:44:33;;;;;;;6.57;3.65;;;8.90;70.30;;;;;;5011920;28;20048;-71
2023/03/16 13:47:07;;;;;;;7.50;3.80;;;8.90;70.20;;;;;;5013695;28;20037;-72
2023/03/16 13:49:44;;;;;;;6.47;3.28;;;8.90;70.20;;;;;;5015893;28;20401;-71
2023/03/16 13:52:24;;;;;;;6.60;3.50;;;8.90;70.10;;;;;;5010504;28;20055;-60